createdAt,value
2022-12-27T00:45:27.736Z,5.30
2022-12-27T01:00:16.186Z,5.20
2022-12-27T01:02:43.856Z,5.00
2022-12-27T01:05:11.479Z,5.00
2022-12-27T01:07:40.032Z,5.40
2022-12-27T01:10:07.834Z,5.20
2022-12-27T01:12:36.653Z,4.80
2022-12-27T01:15:06.291Z,4.90
2022-12-27T01:34:51.625Z,4.40
2022-12-27T01:37:19.922Z,4.60
2022-12-27T01:42:36.482Z,4.30
2022-12-27T01:45:16.065Z,4.20
2022-12-27T01:47:54.621Z,4.10
2022-12-27T01:50:25.028Z,4.10
2022-12-27T01:55:25.640Z,4.10
2022-12-27T01:57:57.056Z,4.00
2022-12-27T02:02:53.332Z,3.90
2022-12-27T02:05:23.932Z,4.00
2022-12-27T02:08:03.244Z,3.90
2022-12-27T02:10:32.360Z,3.90
2022-12-27T02:13:03.067Z,3.90
2022-12-27T02:23:24.360Z,3.70
2022-12-27T02:28:31.643Z,3.60
2022-12-27T02:31:34.141Z,3.60
2022-12-27T02:34:08.901Z,3.50
2022-12-27T02:36:39.323Z,3.50
2022-12-27T02:41:54.586Z,3.50
2022-12-27T02:47:45.617Z,3.40
2022-12-27T02:50:34.412Z,3.50
2022-12-27T02:53:24.472Z,3.50
2022-12-27T02:56:13.586Z,3.20
2022-12-27T03:01:42.506Z,3.40
2022-12-27T03:04:20.587Z,3.60
2022-12-27T03:12:37.413Z,3.70
2022-12-27T03:15:38.789Z,3.70
2022-12-27T03:18:15.222Z,3.80
2022-12-27T03:21:03.005Z,3.80
2022-12-27T03:26:18.810Z,3.70
2022-12-27T03:29:06.565Z,3.70
2022-12-27T03:31:57.872Z,3.60
2022-12-27T03:34:38.466Z,3.70
2022-12-27T03:37:36.246Z,3.70
2022-12-27T03:40:25.201Z,3.70
2022-12-27T03:43:13.059Z,3.70
2022-12-27T03:46:33.883Z,3.80
2022-12-27T03:49:17.217Z,3.90
2022-12-27T03:52:22.396Z,3.90
2022-12-27T03:54:52.120Z,3.80
2022-12-27T03:57:22.960Z,3.80
2022-12-27T03:59:50.536Z,3.70
2022-12-27T04:02:19.095Z,3.80
2022-12-27T04:04:46.865Z,3.70
2022-12-27T04:07:15.422Z,3.70
2022-12-27T04:12:48.332Z,3.50
2022-12-27T04:23:54.297Z,3.60
2022-12-27T04:34:44.463Z,3.50
2022-12-27T04:37:18.561Z,3.50
2022-12-27T04:40:06.358Z,3.50
2022-12-27T04:42:52.235Z,3.40
2022-12-27T04:45:38.944Z,3.30
2022-12-27T04:48:29.723Z,3.30
2022-12-27T04:51:15.575Z,3.10
2022-12-27T04:54:01.192Z,3.20
2022-12-27T04:56:28.778Z,3.10
2022-12-27T04:59:14.435Z,3.00
2022-12-27T05:02:00.740Z,3.10
2022-12-27T05:04:28.170Z,3.00
2022-12-27T05:06:56.695Z,3.40
2022-12-27T05:09:43.357Z,3.20
2022-12-27T05:12:29.468Z,3.10
2022-12-27T05:14:56.813Z,3.00
2022-12-27T05:17:24.291Z,3.10
2022-12-27T05:19:51.630Z,3.10
2022-12-27T05:22:39.334Z,3.20
2022-12-27T05:25:25.696Z,3.20
2022-12-27T05:27:53.190Z,3.20
2022-12-27T05:32:48.443Z,3.30
2022-12-27T05:35:15.708Z,3.40
2022-12-27T05:37:43.178Z,3.50
2022-12-27T05:40:11.264Z,3.50
2022-12-27T05:42:38.868Z,3.60
2022-12-27T05:45:07.129Z,3.80
2022-12-27T05:47:34.811Z,3.80
2022-12-27T05:50:02.162Z,4.00
2022-12-27T05:52:33.087Z,3.80
2022-12-27T06:04:55.247Z,3.80
2022-12-27T07:14:10.424Z,4.30
2022-12-27T07:24:02.068Z,4.50
2022-12-27T07:26:30.795Z,4.10
2022-12-27T07:29:01.198Z,4.40
2022-12-27T07:31:31.987Z,4.30
2022-12-27T07:34:02.093Z,4.30
2022-12-27T07:36:37.120Z,4.30
2022-12-27T07:39:05.142Z,4.40
2022-12-27T07:41:33.080Z,4.30
2022-12-27T07:44:02.189Z,4.40
2022-12-27T07:46:30.096Z,4.40
2022-12-27T07:48:58.901Z,4.40
2022-12-27T07:51:28.372Z,5.00
2022-12-27T07:53:55.965Z,4.60
2022-12-27T07:56:26.927Z,4.30
2022-12-27T07:58:57.799Z,4.50
2022-12-27T08:01:27.070Z,4.60
2022-12-27T08:08:52.725Z,4.60
2022-12-27T08:11:21.593Z,4.70
2022-12-27T08:16:19.803Z,4.80
2022-12-27T08:18:47.913Z,4.80
2022-12-27T08:23:44.256Z,5.40
2022-12-27T08:26:12.182Z,5.10
2022-12-27T08:28:39.718Z,4.90
2022-12-27T08:31:09.356Z,5.70
2022-12-27T08:33:37.627Z,5.10
2022-12-27T08:36:53.495Z,5.30
2022-12-27T08:38:56.177Z,6.00
2022-12-27T08:41:24.185Z,5.50
2022-12-27T08:43:51.728Z,5.10
2022-12-27T08:46:19.884Z,5.00
2022-12-27T08:48:48.976Z,5.00
2022-12-27T08:51:26.581Z,4.70
2022-12-27T08:53:57.989Z,4.90
2022-12-27T08:56:26.597Z,4.90
2022-12-27T08:58:54.220Z,5.00
2022-12-27T09:01:22.535Z,5.60
2022-12-27T09:03:50.090Z,5.00
2022-12-27T09:06:21.905Z,5.30
2022-12-27T09:08:51.172Z,4.90
2022-12-27T09:11:21.957Z,4.80
2022-12-27T09:13:50.413Z,4.80
2022-12-27T09:16:24.882Z,4.70
2022-12-27T09:18:54.596Z,4.80
2022-12-27T09:21:24.314Z,4.60
2022-12-27T09:23:52.403Z,4.80
2022-12-27T09:26:22.771Z,4.60
2022-12-27T09:28:51.107Z,4.60
2022-12-27T09:31:21.291Z,4.60
2022-12-27T09:33:49.039Z,4.60
2022-12-27T09:36:19.620Z,4.70
2022-12-27T09:38:47.966Z,4.50
2022-12-27T09:44:40.601Z,4.50
2022-12-27T09:47:14.587Z,4.60
2022-12-27T09:49:46.416Z,4.50
2022-12-27T09:52:37.488Z,4.50
2022-12-27T09:55:17.185Z,4.40
2022-12-27T09:57:48.858Z,4.50
2022-12-27T10:00:34.157Z,4.60
2022-12-27T10:03:08.051Z,4.50
2022-12-27T10:05:41.616Z,4.60
2022-12-27T10:08:28.439Z,4.60
2022-12-27T10:11:06.285Z,4.50
2022-12-27T10:13:56.503Z,4.50
2022-12-27T10:16:37.179Z,4.50
2022-12-27T10:19:36.801Z,4.50
2022-12-27T10:22:19.481Z,4.50
2022-12-27T10:24:57.234Z,4.50
2022-12-27T10:27:29.369Z,4.40
2022-12-27T10:30:00.118Z,4.40
2022-12-27T10:32:28.918Z,4.40
2022-12-27T10:35:02.185Z,4.40
2022-12-27T10:37:31.786Z,4.40
2022-12-27T10:40:16.403Z,4.60
2022-12-27T10:43:04.744Z,4.50
2022-12-27T10:45:37.804Z,4.50
2022-12-27T10:48:15.411Z,4.50
2022-12-27T10:50:51.702Z,4.60
2022-12-27T10:53:39.328Z,4.70
2022-12-27T10:56:11.077Z,4.70
2022-12-27T10:58:42.619Z,4.70
2022-12-27T11:01:35.592Z,4.80
2022-12-27T11:04:24.213Z,4.70
2022-12-27T11:07:14.399Z,4.70
2022-12-27T11:09:50.668Z,4.70
2022-12-27T11:12:21.472Z,4.70
2022-12-27T11:15:24.948Z,4.60
2022-12-27T11:17:58.198Z,4.60
2022-12-27T11:20:49.359Z,4.60
2022-12-27T11:23:21.620Z,4.50
2022-12-27T11:26:00.837Z,4.60
2022-12-27T11:28:38.332Z,4.50
2022-12-27T11:31:14.762Z,4.50
2022-12-27T11:33:48.375Z,4.50
2022-12-27T11:36:40.938Z,4.50
2022-12-27T11:39:29.882Z,4.50
2022-12-27T11:41:59.922Z,4.60
2022-12-27T11:44:33.164Z,4.50
2022-12-27T11:47:33.347Z,4.60
2022-12-27T11:50:22.697Z,4.50
2022-12-27T11:53:21.335Z,4.60
2022-12-27T11:56:25.721Z,4.60
2022-12-27T11:59:01.344Z,4.60
2022-12-27T12:01:38.677Z,4.60
2022-12-27T12:04:31.065Z,4.70
2022-12-27T12:07:23.027Z,4.60
2022-12-27T12:10:28.390Z,4.70
2022-12-27T12:13:31.463Z,4.70
2022-12-27T12:16:27.306Z,4.60
2022-12-27T12:19:22.066Z,4.70
2022-12-27T12:22:11.570Z,4.60
2022-12-27T12:25:00.476Z,4.70
2022-12-27T12:28:30.357Z,4.60
2022-12-27T12:31:02.662Z,4.60
2022-12-27T12:33:42.638Z,4.70
2022-12-27T12:36:38.758Z,4.70
2022-12-27T12:39:15.844Z,4.70
2022-12-27T12:41:59.157Z,4.80
2022-12-27T12:44:30.596Z,4.80
2022-12-27T12:47:41.057Z,4.80
2022-12-27T12:50:57.165Z,4.80
2022-12-27T12:54:04.610Z,4.00
2022-12-27T12:56:45.617Z,5.20
2022-12-27T12:59:39.507Z,4.80
2022-12-27T13:02:27.045Z,3.60
2022-12-27T13:05:03.364Z,4.60
2022-12-27T13:08:00.284Z,4.20
2022-12-27T13:10:45.371Z,4.10
2022-12-27T13:13:26.494Z,3.90
2022-12-27T13:16:06.702Z,3.90
2022-12-27T13:19:11.665Z,3.90
2022-12-27T13:22:01.353Z,3.70
2022-12-27T13:24:43.718Z,3.70
2022-12-27T13:27:21.988Z,3.60
2022-12-27T13:30:16.029Z,3.30
2022-12-27T13:32:46.960Z,3.60
2022-12-27T13:35:39.330Z,3.60
2022-12-27T13:40:38.057Z,3.40
2022-12-27T13:50:49.247Z,3.70
2022-12-27T13:53:40.314Z,3.70
2022-12-27T13:56:52.892Z,3.80
2022-12-27T13:59:32.634Z,3.80
2022-12-27T14:02:29.773Z,3.50
2022-12-27T14:05:19.651Z,3.80
2022-12-27T14:08:11.724Z,4.20
2022-12-27T14:10:55.221Z,3.80
2022-12-27T14:13:36.379Z,3.80
2022-12-27T14:18:56.541Z,3.80
2022-12-27T14:21:45.921Z,3.80
2022-12-27T14:25:08.664Z,3.80
2022-12-27T14:27:56.693Z,3.80
2022-12-27T14:30:45.977Z,4.40
2022-12-27T14:33:47.835Z,3.80
2022-12-27T14:36:36.975Z,3.90
2022-12-27T14:39:41.608Z,3.70
2022-12-27T14:42:24.472Z,3.60
2022-12-27T14:45:34.317Z,3.60
2022-12-27T14:48:04.903Z,3.90
2022-12-27T14:51:26.127Z,4.00
2022-12-27T14:54:11.851Z,4.00
2022-12-27T14:57:04.581Z,4.30
2022-12-27T15:00:01.424Z,4.00
2022-12-27T15:02:48.990Z,4.40
2022-12-27T15:05:22.957Z,4.40
2022-12-27T15:10:47.818Z,4.10
2022-12-27T15:13:53.461Z,4.20
2022-12-27T15:16:40.228Z,4.00
2022-12-27T15:19:23.052Z,4.30
2022-12-27T15:22:02.995Z,4.20
2022-12-27T15:24:55.333Z,4.20
2022-12-27T15:27:31.053Z,4.20
2022-12-27T15:32:42.027Z,4.30
2022-12-27T15:35:32.836Z,4.50
2022-12-27T15:40:32.957Z,5.10
2022-12-27T15:43:15.477Z,4.10
2022-12-27T15:48:32.970Z,4.30
2022-12-27T15:51:07.455Z,4.10
2022-12-27T15:54:07.352Z,4.40
2022-12-27T15:57:02.203Z,4.10
2022-12-27T15:59:41.143Z,4.10
2022-12-27T16:02:33.808Z,3.70
2022-12-27T16:05:02.746Z,4.10
2022-12-27T16:08:03.722Z,4.10
2022-12-27T16:13:08.994Z,3.90
2022-12-27T16:15:50.235Z,3.90
2022-12-27T16:18:20.550Z,4.10
2022-12-27T16:20:57.116Z,4.20
2022-12-27T16:23:28.001Z,4.30
2022-12-27T16:26:20.556Z,4.20
2022-12-27T16:29:05.364Z,3.50
2022-12-27T16:31:39.089Z,4.40
2022-12-27T16:34:25.701Z,4.40
2022-12-27T16:36:56.145Z,4.30
2022-12-27T16:39:37.103Z,4.30
2022-12-27T16:42:08.201Z,4.00
2022-12-27T16:44:47.218Z,4.10
2022-12-27T16:47:35.254Z,4.20
2022-12-27T16:50:43.153Z,4.20
2022-12-27T16:53:32.668Z,4.40
2022-12-27T16:56:09.131Z,4.20
2022-12-27T16:58:38.048Z,4.20
2022-12-27T17:01:25.711Z,4.10
2022-12-27T17:03:55.039Z,4.20
2022-12-27T17:09:09.894Z,4.60
2022-12-27T17:11:52.818Z,3.90
2022-12-27T17:14:32.065Z,4.50
2022-12-27T17:17:11.269Z,4.30
2022-12-27T17:19:53.085Z,4.20
2022-12-27T17:22:22.354Z,4.20
2022-12-27T17:24:55.359Z,4.20
2022-12-27T17:27:41.673Z,4.30
2022-12-27T17:30:21.592Z,4.10
2022-12-27T17:33:11.894Z,4.20
2022-12-27T17:35:42.093Z,4.20
2022-12-27T17:38:27.229Z,4.40
2022-12-27T17:41:19.977Z,4.20
2022-12-27T17:44:24.861Z,4.20
2022-12-27T17:47:13.476Z,4.30
2022-12-27T17:49:43.671Z,3.70
2022-12-27T17:52:36.657Z,4.40
2022-12-27T17:55:36.792Z,4.20
2022-12-27T17:58:08.480Z,4.30
2022-12-27T18:00:44.772Z,4.30
2022-12-27T18:03:15.142Z,4.20
2022-12-27T18:05:46.094Z,4.30
2022-12-27T18:08:30.533Z,4.30
2022-12-27T18:10:59.870Z,4.40
2022-12-27T18:13:31.468Z,4.40
2022-12-27T18:18:30.638Z,4.40
2022-12-27T18:21:01.835Z,4.40
2022-12-27T18:23:30.587Z,4.40
2022-12-27T18:26:13.225Z,4.50
2022-12-27T18:28:42.943Z,4.40
2022-12-27T18:31:20.071Z,4.40
2022-12-27T18:34:13.503Z,4.40
2022-12-27T18:37:02.253Z,4.40
2022-12-27T18:39:34.084Z,4.40
2022-12-27T18:42:23.913Z,4.40
2022-12-27T18:44:57.907Z,4.40
2022-12-27T18:47:28.155Z,4.70
2022-12-27T18:50:00.635Z,4.50
2022-12-27T18:52:38.740Z,4.50
2022-12-27T18:55:14.071Z,4.50
2022-12-27T18:57:42.523Z,4.50
2022-12-27T19:00:19.313Z,4.70
2022-12-27T19:02:47.299Z,4.70
2022-12-27T19:05:25.635Z,4.50
2022-12-27T19:08:12.809Z,4.40
2022-12-27T19:10:48.402Z,4.50
2022-12-27T19:13:42.269Z,4.50
2022-12-27T19:16:29.587Z,4.60
2022-12-27T19:19:04.866Z,4.50
2022-12-27T19:21:38.107Z,4.60
2022-12-27T19:24:24.292Z,4.50
2022-12-27T19:26:52.227Z,4.70
2022-12-27T19:29:24.468Z,4.30
2022-12-27T19:32:03.801Z,4.60
2022-12-27T19:34:40.211Z,4.40
2022-12-27T19:39:39.183Z,5.20
2022-12-27T19:42:11.808Z,4.70
2022-12-27T19:44:40.301Z,4.30
2022-12-27T19:47:14.074Z,4.80
2022-12-27T19:49:44.589Z,4.50
2022-12-27T19:52:20.735Z,5.10
2022-12-27T19:54:51.165Z,5.00
2022-12-27T19:57:20.482Z,4.20
2022-12-27T19:59:49.824Z,4.40
2022-12-27T20:07:21.805Z,4.50
2022-12-27T20:12:20.859Z,4.50
2022-12-27T20:14:51.448Z,4.40
2022-12-27T20:24:47.842Z,4.30
2022-12-27T20:37:11.724Z,4.50
2022-12-27T20:47:08.531Z,4.60
2022-12-27T20:49:36.781Z,4.90
2022-12-27T20:57:03.007Z,4.30
2022-12-27T21:06:58.126Z,4.30
2022-12-27T21:11:54.833Z,4.30
2022-12-27T21:14:22.813Z,4.20
2022-12-27T21:16:51.066Z,4.30
2022-12-27T21:24:17.633Z,4.10
2022-12-27T21:29:20.333Z,4.40
2022-12-27T21:31:48.176Z,3.90
2022-12-27T21:36:45.515Z,4.00
2022-12-27T21:44:12.793Z,4.20
2022-12-27T21:46:42.500Z,3.80
2022-12-27T21:49:13.537Z,3.80
2022-12-27T21:51:43.186Z,3.80
2022-12-27T21:56:42.072Z,3.90
2022-12-27T21:59:13.158Z,3.50
2022-12-27T22:01:51.424Z,3.90
2022-12-27T22:04:22.323Z,3.50
2022-12-27T22:09:19.736Z,3.70
2022-12-27T22:11:47.698Z,4.20
2022-12-27T22:14:15.642Z,3.40
2022-12-27T22:16:43.501Z,3.80
2022-12-27T22:19:13.127Z,3.20
2022-12-27T22:21:42.611Z,3.60
2022-12-27T22:24:17.463Z,3.40
2022-12-27T22:26:45.354Z,3.80
2022-12-27T22:39:07.670Z,4.20
2022-12-27T22:41:37.987Z,3.50
2022-12-27T22:44:10.293Z,3.50
2022-12-27T22:59:38.662Z,3.70
2022-12-27T23:21:53.828Z,3.60
2022-12-27T23:34:28.734Z,2.80
2022-12-27T23:36:58.738Z,2.80
2022-12-27T23:44:33.435Z,2.70
2022-12-27T23:47:06.003Z,2.70
2022-12-27T23:52:02.806Z,2.90
